createdAt,value
2022-08-20T00:03:29.917Z,3.38
2022-08-20T00:06:24.141Z,2.80
2022-08-20T00:08:54.825Z,3.10
2022-08-20T00:11:29.417Z,3.42
2022-08-20T00:13:59.776Z,3.45
2022-08-20T00:16:29.773Z,3.65
2022-08-20T00:18:56.762Z,3.28
2022-08-20T00:21:25.707Z,3.10
2022-08-20T00:27:54.249Z,3.40
2022-08-20T00:33:56.316Z,4.03
2022-08-20T00:36:35.310Z,3.35
2022-08-20T00:39:55.719Z,3.53
2022-08-20T00:48:54.682Z,3.92
2022-08-20T00:51:29.886Z,5.22
2022-08-20T00:54:07.164Z,3.25
2022-08-20T00:56:35.185Z,3.28
2022-08-20T01:01:34.170Z,3.70
2022-08-20T01:04:34.992Z,2.75
2022-08-20T01:07:02.796Z,3.55
2022-08-20T01:09:49.721Z,3.35
2022-08-20T01:12:18.774Z,3.10
2022-08-20T01:14:47.677Z,3.42
2022-08-20T01:17:19.709Z,2.97
2022-08-20T01:19:55.649Z,3.55
2022-08-20T01:23:04.276Z,3.22
2022-08-20T01:26:03.772Z,2.92
2022-08-20T01:28:47.439Z,2.90
2022-08-20T01:31:23.548Z,3.25
2022-08-20T01:33:53.343Z,3.15
2022-08-20T01:36:46.451Z,3.45
2022-08-20T01:39:18.401Z,3.15
2022-08-20T01:42:03.403Z,3.10
2022-08-20T01:44:31.914Z,3.92
2022-08-20T01:47:09.770Z,3.28
2022-08-20T01:49:44.023Z,3.38
2022-08-20T01:52:20.024Z,3.25
2022-08-20T01:54:46.908Z,2.95
2022-08-20T01:57:17.130Z,2.80
2022-08-20T01:59:44.174Z,2.80
2022-08-20T02:02:12.733Z,3.40
2022-08-20T02:04:41.215Z,4.05
2022-08-20T02:09:39.875Z,3.13
2022-08-20T02:12:09.805Z,2.88
2022-08-20T02:14:43.953Z,3.55
2022-08-20T02:17:12.827Z,3.30
2022-08-20T02:19:48.324Z,2.90
2022-08-20T02:22:34.453Z,2.80
2022-08-20T02:25:02.202Z,3.05
2022-08-20T02:27:29.315Z,2.60
2022-08-20T02:29:56.103Z,2.78
2022-08-20T02:32:32.563Z,2.90
2022-08-20T02:35:03.760Z,3.08
2022-08-20T02:37:31.525Z,3.75
2022-08-20T02:42:26.524Z,3.25
2022-08-20T02:44:54.657Z,2.80
2022-08-20T02:47:21.698Z,3.17
2022-08-20T02:49:49.629Z,3.20
2022-08-20T02:52:25.696Z,3.17
2022-08-20T02:54:53.330Z,3.63
2022-08-20T02:57:20.794Z,3.53
2022-08-20T02:59:48.898Z,3.33
2022-08-20T03:04:42.989Z,3.88
2022-08-20T03:07:11.878Z,3.42
2022-08-20T03:09:40.871Z,4.30
2022-08-20T03:12:08.833Z,4.32
2022-08-20T03:14:41.285Z,4.03
2022-08-20T03:17:08.535Z,4.60
2022-08-20T03:19:35.454Z,5.15
2022-08-20T03:22:02.323Z,4.18
2022-08-20T03:24:30.617Z,4.88
2022-08-20T03:26:57.741Z,4.35
2022-08-20T03:29:24.850Z,4.50
2022-08-20T03:31:51.846Z,4.80
2022-08-20T03:34:23.896Z,4.60
2022-08-20T03:37:05.746Z,4.95
2022-08-20T03:39:43.548Z,5.13
2022-08-20T03:42:10.549Z,4.10
2022-08-20T03:44:39.786Z,4.60
2022-08-20T03:49:37.037Z,4.88
2022-08-20T03:52:09.806Z,4.43
2022-08-20T03:54:49.327Z,4.82
2022-08-20T03:57:16.605Z,4.95
2022-08-20T04:02:34.713Z,4.38
2022-08-20T04:05:01.676Z,4.30
2022-08-20T04:07:28.723Z,4.25
2022-08-20T04:09:56.895Z,4.32
2022-08-20T04:12:25.239Z,4.35
2022-08-20T04:14:54.497Z,4.05
2022-08-20T04:17:23.383Z,4.28
2022-08-20T04:19:50.225Z,5.40
2022-08-20T04:22:17.071Z,4.25
2022-08-20T04:24:44.583Z,4.25
2022-08-20T04:27:12.378Z,4.40
2022-08-20T04:29:43.220Z,4.60
2022-08-20T04:32:10.588Z,5.10
2022-08-20T04:37:31.439Z,4.65
2022-08-20T04:40:23.711Z,4.32
2022-08-20T04:43:05.247Z,4.65
2022-08-20T04:45:34.747Z,4.60
2022-08-20T04:48:15.500Z,4.63
2022-08-20T04:50:45.019Z,4.45
2022-08-20T04:53:14.458Z,4.40
2022-08-20T04:55:42.995Z,4.10
2022-08-20T04:58:19.835Z,5.30
2022-08-20T05:00:52.454Z,4.80
2022-08-20T05:03:20.144Z,5.45
2022-08-20T05:05:47.873Z,5.37
2022-08-20T05:08:19.632Z,7.45
2022-08-20T05:10:47.562Z,5.20
2022-08-20T05:13:14.321Z,6.28
2022-08-20T05:15:41.503Z,6.18
2022-08-20T05:18:09.453Z,5.63
2022-08-20T05:20:40.283Z,5.85
2022-08-20T05:23:14.057Z,5.80
2022-08-20T05:25:43.157Z,4.80
2022-08-20T05:28:13.333Z,4.68
2022-08-20T05:30:42.093Z,5.15
2022-08-20T05:33:14.081Z,5.47
2022-08-20T05:35:41.967Z,4.50
2022-08-20T05:38:12.082Z,7.38
2022-08-20T05:40:41.664Z,4.00
2022-08-20T05:43:09.402Z,5.65
2022-08-20T05:45:38.307Z,4.68
2022-08-20T05:48:12.874Z,3.50
2022-08-20T05:50:43.445Z,4.00
2022-08-20T05:53:10.582Z,3.70
2022-08-20T05:55:38.510Z,4.88
2022-08-20T05:58:25.208Z,3.67
2022-08-20T06:00:53.937Z,4.00
2022-08-20T06:03:42.290Z,4.07
2022-08-20T06:06:15.116Z,4.35
2022-08-20T06:09:00.215Z,4.15
2022-08-20T06:11:27.398Z,3.83
2022-08-20T06:13:54.279Z,3.95
2022-08-20T06:16:22.068Z,3.90
2022-08-20T06:18:58.236Z,3.80
2022-08-20T06:21:26.669Z,3.78
2022-08-20T06:24:01.497Z,3.50
2022-08-20T06:26:30.905Z,3.85
2022-08-20T06:29:04.773Z,3.50
2022-08-20T06:31:32.134Z,3.95
2022-08-20T06:34:04.885Z,3.67
2022-08-20T06:36:32.072Z,3.63
2022-08-20T06:38:59.521Z,4.03
2022-08-20T06:41:36.125Z,3.80
2022-08-20T06:44:14.869Z,3.80
2022-08-20T06:46:43.476Z,3.65
2022-08-20T06:49:10.833Z,3.58
2022-08-20T06:51:38.331Z,4.13
2022-08-20T06:54:36.462Z,4.05
2022-08-20T06:57:05.332Z,3.28
2022-08-20T06:59:32.787Z,3.70
2022-08-20T07:02:05.978Z,3.72
2022-08-20T07:04:59.733Z,3.67
2022-08-20T07:07:26.877Z,3.35
2022-08-20T07:10:12.392Z,3.22
2022-08-20T07:12:39.376Z,3.65
2022-08-20T07:15:10.216Z,3.57
2022-08-20T07:17:37.380Z,3.95
2022-08-20T07:20:11.638Z,3.15
2022-08-20T07:22:39.278Z,3.45
2022-08-20T07:25:08.684Z,4.03
2022-08-20T07:27:35.840Z,4.00
2022-08-20T07:30:24.929Z,3.70
2022-08-20T07:32:52.215Z,3.63
2022-08-20T07:35:20.611Z,3.30
2022-08-20T07:37:51.790Z,3.70
2022-08-20T07:40:27.955Z,3.55
2022-08-20T07:43:05.318Z,3.60
2022-08-20T07:45:32.250Z,3.60
2022-08-20T07:48:12.361Z,3.20
2022-08-20T07:51:01.030Z,3.80
2022-08-20T07:53:42.631Z,3.40
2022-08-20T07:56:12.251Z,3.35
2022-08-20T07:58:44.901Z,4.57
2022-08-20T08:01:11.935Z,3.22
2022-08-20T08:03:49.301Z,3.00
2022-08-20T08:06:29.149Z,3.28
2022-08-20T08:08:59.607Z,3.22
2022-08-20T08:11:26.641Z,3.63
2022-08-20T08:13:53.452Z,3.53
2022-08-20T08:16:21.277Z,3.38
2022-08-20T08:18:59.558Z,3.08
2022-08-20T08:21:26.618Z,3.30
2022-08-20T08:23:53.662Z,3.17
2022-08-20T08:26:21.857Z,3.78
2022-08-20T08:28:48.770Z,3.30
2022-08-20T08:31:16.047Z,3.63
2022-08-20T08:33:44.546Z,3.45
2022-08-20T08:36:14.555Z,3.30
2022-08-20T08:38:44.453Z,2.85
2022-08-20T08:41:19.830Z,3.17
2022-08-20T08:43:53.936Z,3.40
2022-08-20T08:46:25.629Z,3.50
2022-08-20T08:48:57.909Z,3.30
2022-08-20T08:51:32.984Z,3.67
2022-08-20T08:54:06.911Z,3.75
2022-08-20T08:56:35.077Z,3.75
2022-08-20T08:59:05.642Z,3.70
2022-08-20T09:01:54.720Z,3.70
2022-08-20T09:05:00.620Z,4.45
2022-08-20T09:07:31.424Z,4.15
2022-08-20T09:10:00.324Z,4.30
2022-08-20T09:12:28.050Z,4.20
2022-08-20T09:14:55.386Z,3.72
2022-08-20T09:17:28.429Z,5.15
2022-08-20T09:19:56.925Z,4.32
2022-08-20T09:26:29.294Z,4.22
2022-08-20T09:29:15.097Z,4.30
2022-08-20T09:31:42.505Z,3.75
2022-08-20T09:34:10.169Z,4.22
2022-08-20T09:36:36.940Z,3.80
2022-08-20T09:39:03.848Z,4.40
2022-08-20T09:41:33.581Z,4.63
2022-08-20T09:44:00.636Z,4.18
2022-08-20T09:46:27.730Z,3.70
2022-08-20T09:48:55.360Z,5.03
2022-08-20T09:51:23.005Z,4.15
2022-08-20T09:53:50.519Z,4.82
2022-08-20T09:56:18.156Z,4.18
2022-08-20T09:58:54.309Z,5.17
2022-08-20T10:01:22.844Z,5.75
2022-08-20T10:06:19.854Z,6.28
2022-08-20T10:08:47.618Z,4.80
2022-08-20T10:11:14.739Z,5.90
2022-08-20T10:13:41.892Z,4.90
2022-08-20T10:16:08.970Z,5.63
2022-08-20T10:18:37.079Z,5.47
2022-08-20T10:21:10.761Z,5.40
2022-08-20T10:23:37.772Z,5.18
2022-08-20T10:26:04.593Z,6.43
2022-08-20T10:28:31.410Z,5.50
2022-08-20T10:30:58.397Z,5.60
2022-08-20T10:33:25.366Z,5.88
2022-08-20T10:35:55.681Z,5.45
2022-08-20T10:38:26.870Z,5.93
2022-08-20T10:40:53.853Z,5.97
2022-08-20T10:43:20.567Z,5.65
2022-08-20T10:45:47.442Z,6.95
2022-08-20T10:48:17.140Z,6.35
2022-08-20T10:50:46.412Z,6.15
2022-08-20T10:53:13.599Z,5.80
2022-08-20T10:55:40.392Z,5.32
2022-08-20T10:58:08.882Z,6.15
2022-08-20T11:00:39.383Z,5.10
2022-08-20T11:03:06.303Z,5.15
2022-08-20T11:05:34.121Z,5.38
2022-08-20T11:08:04.022Z,5.68
2022-08-20T11:10:34.056Z,6.13
2022-08-20T11:13:02.384Z,6.15
2022-08-20T11:17:57.167Z,7.40
2022-08-20T11:20:26.239Z,7.18
2022-08-20T11:22:54.706Z,7.13
2022-08-20T11:25:21.556Z,8.43
2022-08-20T11:27:51.862Z,7.10
2022-08-20T11:30:26.060Z,8.73
2022-08-20T11:32:53.510Z,7.53
2022-08-20T11:35:43.397Z,8.05
2022-08-20T11:38:11.515Z,8.00
2022-08-20T11:40:38.821Z,8.10
2022-08-20T11:43:20.817Z,7.40
2022-08-20T11:45:56.068Z,5.35
2022-08-20T11:48:23.754Z,5.40
2022-08-20T11:50:52.039Z,5.22
2022-08-20T11:53:24.207Z,6.37
2022-08-20T11:55:52.529Z,5.90
2022-08-20T11:58:19.513Z,5.50
2022-08-20T12:00:46.363Z,5.82
2022-08-20T12:03:13.792Z,6.18
2022-08-20T12:05:43.121Z,5.82
2022-08-20T12:08:26.944Z,5.35
2022-08-20T12:10:56.534Z,5.40
2022-08-20T12:13:30.638Z,5.68
2022-08-20T12:16:12.925Z,5.53
2022-08-20T12:18:39.669Z,5.63
2022-08-20T12:21:08.478Z,5.50
2022-08-20T12:23:36.041Z,6.18
2022-08-20T12:26:03.598Z,5.47
2022-08-20T12:28:31.915Z,5.18
2022-08-20T12:30:59.396Z,5.53
2022-08-20T12:33:29.028Z,5.80
2022-08-20T12:38:44.743Z,5.20
2022-08-20T12:41:11.766Z,5.63
2022-08-20T12:47:34.016Z,4.93
2022-08-20T12:50:10.179Z,4.20
2022-08-20T12:52:37.880Z,5.20
2022-08-20T12:56:33.341Z,5.03
2022-08-20T12:59:03.700Z,4.32
2022-08-20T13:01:31.316Z,4.40
2022-08-20T13:03:58.800Z,4.00
2022-08-20T13:06:25.670Z,4.43
2022-08-20T13:08:52.848Z,4.15
2022-08-20T13:11:19.579Z,4.13
2022-08-20T13:13:47.716Z,3.65
2022-08-20T13:16:14.743Z,3.40
2022-08-20T13:18:41.651Z,3.60
2022-08-20T13:21:08.449Z,4.22
2022-08-20T13:23:35.595Z,4.05
2022-08-20T13:26:02.646Z,3.88
2022-08-20T13:28:29.449Z,3.50
2022-08-20T13:30:56.351Z,3.80
2022-08-20T13:33:23.168Z,3.58
2022-08-20T13:35:50.564Z,3.72
2022-08-20T13:38:17.920Z,2.97
2022-08-20T13:40:44.782Z,3.10
2022-08-20T13:43:16.233Z,3.72
2022-08-20T13:45:43.471Z,4.20
2022-08-20T13:48:14.697Z,3.30
2022-08-20T13:50:42.700Z,3.08
2022-08-20T13:53:10.222Z,3.63
2022-08-20T13:55:38.484Z,3.97
2022-08-20T13:58:07.766Z,3.58
2022-08-20T14:00:36.314Z,3.80
2022-08-20T14:03:05.109Z,2.90
2022-08-20T14:05:33.063Z,3.63
2022-08-20T14:08:30.876Z,4.05
2022-08-20T14:10:57.765Z,3.20
2022-08-20T14:13:26.078Z,3.08
2022-08-20T14:15:53.305Z,4.13
2022-08-20T14:18:20.677Z,3.05
2022-08-20T14:20:48.109Z,3.40
2022-08-20T14:23:15.493Z,3.92
2022-08-20T14:25:46.210Z,3.42
2022-08-20T14:28:19.898Z,3.60
2022-08-20T14:30:53.225Z,3.13
2022-08-20T14:33:22.797Z,3.47
2022-08-20T14:35:49.841Z,3.85
2022-08-20T14:38:17.792Z,3.92
2022-08-20T14:40:45.026Z,4.03
2022-08-20T14:43:12.016Z,3.78
2022-08-20T14:45:38.874Z,3.45
2022-08-20T14:48:09.338Z,3.40
2022-08-20T14:50:36.920Z,3.42
2022-08-20T14:53:04.852Z,3.15
2022-08-20T14:55:35.891Z,3.38
2022-08-20T14:58:07.708Z,3.05
2022-08-20T15:00:34.950Z,3.30
2022-08-20T15:03:02.023Z,3.20
2022-08-20T15:05:29.895Z,3.80
2022-08-20T15:07:57.797Z,3.10
2022-08-20T15:10:29.838Z,3.75
2022-08-20T15:12:58.142Z,2.83
2022-08-20T15:15:25.781Z,3.10
2022-08-20T15:17:56.198Z,3.47
2022-08-20T15:20:26.327Z,3.20
2022-08-20T15:22:57.152Z,3.30
2022-08-20T15:25:26.624Z,3.10
2022-08-20T15:28:17.291Z,3.00
2022-08-20T15:30:57.297Z,3.05
2022-08-20T15:33:24.244Z,3.40
2022-08-20T15:36:04.655Z,3.00
2022-08-20T15:38:33.061Z,3.30
2022-08-20T15:43:32.591Z,3.00
2022-08-20T15:46:00.962Z,2.90
2022-08-20T15:51:11.907Z,3.15
2022-08-20T15:54:02.387Z,2.95
2022-08-20T15:56:50.883Z,3.30
2022-08-20T15:59:39.240Z,3.00
2022-08-20T16:02:20.598Z,3.20
2022-08-20T16:05:09.828Z,3.10
2022-08-20T16:08:04.637Z,3.25
2022-08-20T16:10:42.449Z,2.78
2022-08-20T16:13:41.605Z,3.33
2022-08-20T16:16:16.424Z,3.95
2022-08-20T16:18:48.189Z,4.25
2022-08-20T16:21:19.006Z,3.97
2022-08-20T16:23:47.334Z,3.80
2022-08-20T16:26:23.228Z,6.10
2022-08-20T16:28:56.286Z,4.65
2022-08-20T16:31:28.120Z,3.83
2022-08-20T16:34:33.226Z,3.60
2022-08-20T16:37:16.347Z,3.75
2022-08-20T16:39:58.572Z,4.18
2022-08-20T16:42:32.937Z,4.25
2022-08-20T16:45:01.987Z,4.60
2022-08-20T16:47:34.463Z,3.50
2022-08-20T16:50:01.542Z,4.93
2022-08-20T16:52:28.874Z,5.03
2022-08-20T16:54:59.659Z,4.32
2022-08-20T16:57:28.869Z,4.15
2022-08-20T17:00:24.881Z,3.97
2022-08-20T17:03:00.813Z,4.22
2022-08-20T17:05:49.778Z,3.85
2022-08-20T17:08:28.526Z,4.50
2022-08-20T17:11:11.396Z,4.55
2022-08-20T17:13:41.610Z,3.88
2022-08-20T17:16:21.024Z,3.83
2022-08-20T17:18:51.382Z,4.68
2022-08-20T17:21:38.393Z,4.22
2022-08-20T17:24:16.638Z,4.47
2022-08-20T17:26:56.192Z,3.72
2022-08-20T17:29:28.117Z,4.00
2022-08-20T17:31:58.397Z,4.32
2022-08-20T17:35:01.157Z,4.93
2022-08-20T17:37:33.744Z,4.05
2022-08-20T17:40:11.819Z,4.30
2022-08-20T17:42:58.516Z,4.38
2022-08-20T17:48:35.859Z,4.28
2022-08-20T17:51:21.886Z,3.88
2022-08-20T17:54:15.333Z,4.00
2022-08-20T17:56:48.250Z,4.40
2022-08-20T17:59:59.538Z,3.97
2022-08-20T18:02:10.646Z,3.45
2022-08-20T18:04:53.954Z,4.00
2022-08-20T18:07:41.870Z,4.57
2022-08-20T18:10:21.099Z,4.72
2022-08-20T18:12:54.153Z,3.88
2022-08-20T18:15:31.984Z,4.38
2022-08-20T18:18:11.731Z,4.07
2022-08-20T18:25:15.389Z,4.00
2022-08-20T18:27:50.923Z,4.03
2022-08-20T18:30:21.167Z,3.78
2022-08-20T18:33:08.013Z,3.67
2022-08-20T18:35:45.636Z,4.53
2022-08-20T18:38:29.528Z,4.13
2022-08-20T18:41:29.706Z,3.78
2022-08-20T18:44:40.797Z,3.88
2022-08-20T18:47:35.624Z,4.20
2022-08-20T18:50:16.028Z,3.40
2022-08-20T18:56:51.836Z,3.50
2022-08-20T18:59:47.282Z,3.33
2022-08-20T19:02:29.493Z,4.10
2022-08-20T19:05:02.791Z,3.33
2022-08-20T19:07:43.100Z,4.05
2022-08-20T19:10:30.753Z,3.20
2022-08-20T19:13:18.216Z,3.22
2022-08-20T19:16:20.953Z,4.13
2022-08-20T19:19:14.824Z,3.72
2022-08-20T19:21:54.836Z,3.97
2022-08-20T19:24:34.383Z,4.45
2022-08-20T19:27:07.728Z,4.38
2022-08-20T19:29:47.917Z,4.68
2022-08-20T19:32:34.658Z,4.22
2022-08-20T19:35:12.048Z,4.50
2022-08-20T19:37:52.169Z,4.40
2022-08-20T19:40:28.615Z,4.25
2022-08-20T19:43:13.338Z,4.72
2022-08-20T19:45:53.529Z,5.05
2022-08-20T19:48:51.685Z,5.20
2022-08-20T19:51:35.101Z,5.00
2022-08-20T19:55:04.018Z,4.55
2022-08-20T19:57:31.594Z,4.40
2022-08-20T20:00:14.736Z,5.07
2022-08-20T20:02:41.738Z,5.45
2022-08-20T20:05:10.343Z,6.00
2022-08-20T20:07:46.894Z,4.93
2022-08-20T20:10:32.161Z,4.93
2022-08-20T20:13:13.646Z,5.18
2022-08-20T20:15:42.650Z,5.88
2022-08-20T20:18:10.396Z,5.70
2022-08-20T20:20:57.038Z,5.97
2022-08-20T20:23:38.499Z,5.93
2022-08-20T20:26:20.417Z,6.00
2022-08-20T20:35:47.142Z,5.60
2022-08-20T20:38:46.155Z,5.40
2022-08-20T20:41:29.776Z,6.28
2022-08-20T20:44:03.648Z,4.72
2022-08-20T20:46:33.726Z,4.80
2022-08-20T20:49:08.194Z,4.43
2022-08-20T20:51:40.400Z,4.25
2022-08-20T20:54:24.153Z,4.80
2022-08-20T20:57:06.585Z,4.65
2022-08-20T20:59:35.419Z,4.60
2022-08-20T21:02:03.166Z,4.38
2022-08-20T21:04:30.753Z,4.75
2022-08-20T21:10:10.302Z,4.63
2022-08-20T21:12:39.255Z,5.45
2022-08-20T21:15:06.722Z,5.18
2022-08-20T21:17:33.620Z,4.28
2022-08-20T21:20:01.951Z,5.00
2022-08-20T21:22:33.988Z,4.10
2022-08-20T21:25:01.436Z,4.18
2022-08-20T21:27:29.936Z,4.75
2022-08-20T21:29:57.216Z,4.80
2022-08-20T21:32:24.557Z,5.18
2022-08-20T21:34:53.448Z,4.40
2022-08-20T21:37:20.298Z,4.95
2022-08-20T21:39:47.574Z,4.25
2022-08-20T21:42:28.568Z,5.20
2022-08-20T21:45:00.063Z,5.28
2022-08-20T21:47:28.452Z,5.38
2022-08-20T21:49:55.431Z,5.45
2022-08-20T21:52:23.490Z,4.75
2022-08-20T21:54:50.413Z,4.38
2022-08-20T21:57:28.875Z,4.18
2022-08-20T22:02:25.246Z,5.05
2022-08-20T22:04:54.015Z,5.38
2022-08-20T22:07:21.716Z,5.30
2022-08-20T22:09:48.450Z,5.45
2022-08-20T22:12:23.272Z,5.63
2022-08-20T22:14:50.743Z,5.68
2022-08-20T22:17:17.986Z,5.22
2022-08-20T22:19:45.005Z,5.63
2022-08-20T22:22:13.457Z,5.15
2022-08-20T22:24:40.308Z,5.85
2022-08-20T22:27:07.808Z,4.88
2022-08-20T22:29:34.856Z,6.63
2022-08-20T22:32:02.379Z,6.10
2022-08-20T22:34:35.929Z,5.55
2022-08-20T22:37:04.180Z,5.22
2022-08-20T22:39:31.034Z,5.28
2022-08-20T22:41:58.157Z,5.00
2022-08-20T22:44:25.232Z,5.03
2022-08-20T22:46:55.896Z,4.78
2022-08-20T22:49:27.168Z,5.45
2022-08-20T22:51:54.224Z,5.60
2022-08-20T22:54:25.043Z,5.75
2022-08-20T22:56:54.130Z,6.15
2022-08-20T22:59:22.227Z,5.30
2022-08-20T23:01:50.503Z,5.25
2022-08-20T23:04:26.463Z,5.72
2022-08-20T23:06:54.966Z,5.90
2022-08-20T23:09:22.325Z,5.40
2022-08-20T23:11:49.819Z,4.68
2022-08-20T23:14:17.122Z,4.88
2022-08-20T23:17:01.903Z,5.03
2022-08-20T23:19:29.497Z,4.80
2022-08-20T23:21:56.567Z,5.00
2022-08-20T23:24:36.712Z,5.50
2022-08-20T23:27:06.590Z,5.60
2022-08-20T23:29:33.939Z,5.57
2022-08-20T23:32:00.885Z,5.07
2022-08-20T23:34:28.412Z,5.22
2022-08-20T23:36:56.988Z,5.03
2022-08-20T23:39:25.632Z,5.72
2022-08-20T23:41:52.946Z,4.80
2022-08-20T23:44:25.805Z,4.47
2022-08-20T23:47:00.306Z,4.53
2022-08-20T23:49:28.219Z,4.85
2022-08-20T23:51:55.848Z,5.03
2022-08-20T23:54:22.727Z,5.22
2022-08-20T23:56:49.716Z,4.50
2022-08-20T23:59:16.993Z,4.82
